Time;durP1;ratioP1;P1;durP2;ratioP2;P2;SDS_P1;SDS_P2;PMS_P1;PMS_P2;Temp;Humidity;BMP_temperature;BMP_pressure;BME280_temperature;BME280_humidity;BME280_pressure;Samples;Min_cycle;Max_cycle;Signal;HPM_P1;HPM_P2
2021/09/07 00:00:09;;;;;;;13.83;12.20;;;17.10;99.90;;;;;;5129262;27;20915;-39
2021/09/07 00:02:34;;;;;;;14.53;12.00;;;17.10;99.90;;;;;;5128627;27;20187;-37
2021/09/07 00:05:00;;;;;;;15.57;12.40;;;17.10;99.90;;;;;;5129714;27;20431;-39
2021/09/07 00:07:26;;;;;;;16.70;12.63;;;17.10;99.90;;;;;;5128884;27;20314;-37
2021/09/07 00:09:54;;;;;;;13.13;11.73;;;17.00;99.90;;;;;;5127683;27;20504;-37
2021/09/07 00:12:20;;;;;;;14.30;11.23;;;17.00;99.90;;;;;;5121102;27;20787;-37
2021/09/07 00:14:46;;;;;;;17.10;13.40;;;17.10;99.90;;;;;;5121284;27;20424;-37
2021/09/07 00:17:12;;;;;;;14.97;11.40;;;17.10;99.90;;;;;;5127244;27;20435;-36
2021/09/07 00:19:39;;;;;;;15.30;11.50;;;17.00;99.90;;;;;;5129165;27;20557;-39
2021/09/07 00:22:05;;;;;;;15.07;11.80;;;17.00;99.90;;;;;;5128257;27;20421;-37
2021/09/07 00:24:31;;;;;;;13.57;12.17;;;17.00;99.90;;;;;;5129303;27;20436;-39
2021/09/07 00:26:58;;;;;;;13.07;11.00;;;16.90;99.90;;;;;;5116519;27;20464;-38
2021/09/07 00:29:27;;;;;;;14.70;11.07;;;16.90;99.90;;;;;;5123872;27;20180;-37
2021/09/07 00:31:53;;;;;;;13.70;11.80;;;16.80;99.90;;;;;;5128204;27;20428;-37
2021/09/07 00:34:19;;;;;;;13.57;11.87;;;16.90;99.90;;;;;;5128829;27;20424;-39
2021/09/07 00:36:44;;;;;;;17.70;12.00;;;17.00;99.90;;;;;;5128026;27;20549;-37
2021/09/07 00:39:12;;;;;;;14.53;12.23;;;17.00;99.90;;;;;;5128971;27;20543;-37
2021/09/07 00:41:39;;;;;;;15.60;12.17;;;17.10;99.90;;;;;;5117136;27;20253;-37
2021/09/07 00:44:19;;;;;;;13.67;11.30;;;17.20;99.90;;;;;;5128461;27;20420;-37
2021/09/07 00:46:56;;;;;;;14.47;11.37;;;17.00;99.90;;;;;;5123967;27;20520;-37
2021/09/07 00:49:23;;;;;;;17.57;13.00;;;17.00;99.90;;;;;;5128622;27;20481;-37
2021/09/07 00:51:50;;;;;;;14.73;12.57;;;17.00;99.90;;;;;;5127795;27;20793;-38
2021/09/07 00:54:19;;;;;;;16.90;13.80;;;17.00;99.90;;;;;;5128289;27;20425;-37
2021/09/07 00:56:46;;;;;;;17.63;12.17;;;17.00;99.90;;;;;;5118679;27;20520;-37
2021/09/07 00:59:13;;;;;;;15.93;13.17;;;16.90;99.90;;;;;;5128162;27;20489;-37
2021/09/07 01:01:39;;;;;;;14.93;12.10;;;16.90;99.90;;;;;;5127976;27;20978;-37
2021/09/07 01:04:05;;;;;;;16.37;12.50;;;16.90;99.90;;;;;;5128352;27;20417;-37
2021/09/07 01:06:32;;;;;;;18.63;13.03;;;16.90;99.90;;;;;;5128035;27;20463;-37
2021/09/07 01:08:58;;;;;;;15.17;12.43;;;17.00;99.90;;;;;;5128153;27;20260;-37
2021/09/07 01:11:23;;;;;;;14.80;12.20;;;17.00;99.90;;;;;;5118016;27;20434;-37
2021/09/07 01:13:49;;;;;;;14.70;12.53;;;17.00;99.90;;;;;;5128083;27;20782;-38
2021/09/07 01:16:15;;;;;;;14.63;13.10;;;17.00;99.90;;;;;;5127225;27;20187;-37
2021/09/07 01:18:42;;;;;;;15.10;12.00;;;17.00;99.90;;;;;;5126633;27;20444;-37
2021/09/07 01:21:13;;;;;;;19.67;13.03;;;17.00;99.90;;;;;;5127904;27;20416;-38
2021/09/07 01:23:43;;;;;;;17.23;12.90;;;16.80;99.90;;;;;;5127638;27;20447;-37
2021/09/07 01:26:11;;;;;;;14.70;12.27;;;16.70;99.90;;;;;;5100899;28;20498;-37
2021/09/07 01:28:37;;;;;;;16.27;13.33;;;16.50;99.90;;;;;;5126809;27;20448;-37
2021/09/07 01:31:04;;;;;;;19.20;14.63;;;16.50;99.90;;;;;;5127726;27;20467;-38
2021/09/07 01:33:30;;;;;;;17.20;13.20;;;16.40;99.90;;;;;;5111776;27;20734;-37
2021/09/07 01:35:59;;;;;;;20.33;14.77;;;16.40;99.90;;;;;;5125836;27;20760;-39
2021/09/07 01:38:26;;;;;;;20.70;14.60;;;16.40;99.90;;;;;;5127369;27;20563;-37
2021/09/07 01:40:52;;;;;;;20.60;14.33;;;16.60;99.90;;;;;;5122273;27;20934;-37
2021/09/07 01:43:19;;;;;;;19.73;14.20;;;16.70;99.90;;;;;;5123088;27;20428;-37
2021/09/07 01:45:49;;;;;;;17.83;13.13;;;16.70;99.90;;;;;;5118799;27;20611;-37
2021/09/07 01:48:17;;;;;;;16.90;12.53;;;16.70;99.90;;;;;;5127252;27;20939;-37
2021/09/07 01:50:43;;;;;;;15.90;13.47;;;16.80;99.90;;;;;;5127269;27;20412;-37
2021/09/07 01:53:09;;;;;;;20.10;13.77;;;16.70;99.90;;;;;;5108579;27;20420;-37
2021/09/07 01:55:35;;;;;;;19.77;13.93;;;16.80;99.90;;;;;;5124339;27;20466;-37
2021/09/07 01:58:00;;;;;;;17.77;14.27;;;16.70;99.90;;;;;;5116113;27;20247;-38
2021/09/07 02:00:26;;;;;;;17.30;13.27;;;16.70;99.90;;;;;;5127158;27;20190;-37
2021/09/07 02:02:51;;;;;;;16.10;13.23;;;16.60;99.90;;;;;;5126821;27;20198;-37
2021/09/07 02:05:18;;;;;;;18.57;14.57;;;16.40;99.90;;;;;;5127389;27;20278;-40
2021/09/07 02:07:43;;;;;;;17.43;14.30;;;16.20;99.90;;;;;;5126581;27;20305;-37
2021/09/07 02:10:09;;;;;;;15.27;13.37;;;16.10;99.90;;;;;;5127141;27;20905;-37
2021/09/07 02:12:35;;;;;;;18.33;13.70;;;16.10;99.90;;;;;;5114649;27;20919;-38
2021/09/07 02:15:01;;;;;;;16.13;12.00;;;16.20;99.90;;;;;;5126947;27;20786;-37
2021/09/07 02:17:27;;;;;;;17.53;14.60;;;16.10;99.90;;;;;;5124965;27;20422;-38
2021/09/07 02:19:53;;;;;;;17.27;14.37;;;16.00;99.90;;;;;;5108692;27;20494;-39
2021/09/07 02:22:21;;;;;;;16.60;13.30;;;16.00;99.90;;;;;;5126151;27;20187;-37
2021/09/07 02:24:47;;;;;;;15.40;13.10;;;15.90;99.90;;;;;;5126705;27;20195;-38
2021/09/07 02:27:13;;;;;;;18.60;13.43;;;15.90;99.90;;;;;;5118766;27;20476;-37
2021/09/07 02:29:39;;;;;;;18.27;14.03;;;15.90;99.90;;;;;;5126686;27;20413;-37
2021/09/07 02:32:06;;;;;;;15.47;13.37;;;15.90;99.90;;;;;;5126131;27;20409;-37
2021/09/07 02:34:32;;;;;;;16.27;13.97;;;16.00;99.90;;;;;;5126838;27;20439;-37
2021/09/07 02:36:57;;;;;;;15.20;12.83;;;16.10;99.90;;;;;;5126470;27;20429;-37
2021/09/07 02:39:23;;;;;;;15.90;13.73;;;16.10;99.90;;;;;;5126889;28;20630;-37
2021/09/07 02:41:49;;;;;;;18.30;13.90;;;16.00;99.90;;;;;;5120574;28;20206;-38
2021/09/07 02:44:14;;;;;;;18.10;13.73;;;16.10;99.90;;;;;;5122772;28;20191;-37
2021/09/07 02:46:40;;;;;;;17.53;13.47;;;16.10;99.90;;;;;;5122979;28;20215;-38
2021/09/07 02:49:06;;;;;;;16.63;13.03;;;16.20;99.90;;;;;;5126775;28;20228;-37
2021/09/07 02:51:31;;;;;;;15.30;13.17;;;16.30;99.90;;;;;;5125841;28;20233;-37
2021/09/07 02:53:57;;;;;;;15.10;13.00;;;16.20;99.90;;;;;;5126573;28;20710;-37
2021/09/07 02:56:23;;;;;;;18.97;12.83;;;16.20;99.90;;;;;;5121461;28;21009;-39
2021/09/07 02:58:49;;;;;;;16.67;13.67;;;16.10;99.90;;;;;;5118598;28;20187;-37
2021/09/07 03:01:14;;;;;;;17.63;13.80;;;16.20;99.90;;;;;;5126411;28;20210;-37
2021/09/07 03:03:40;;;;;;;17.83;13.37;;;16.20;99.90;;;;;;5126067;28;20183;-38
2021/09/07 03:06:06;;;;;;;15.87;14.17;;;16.10;99.90;;;;;;5126180;28;20195;-38
2021/09/07 03:08:32;;;;;;;18.77;14.17;;;16.30;99.90;;;;;;5126426;27;20207;-38
2021/09/07 03:10:58;;;;;;;17.23;13.00;;;16.40;99.90;;;;;;5130473;27;20237;-38
2021/09/07 03:13:24;;;;;;;15.57;12.63;;;16.50;99.90;;;;;;5101705;27;20472;-38
2021/09/07 03:15:50;;;;;;;21.00;14.53;;;16.40;99.90;;;;;;5130121;27;20183;-38
2021/09/07 03:18:15;;;;;;;18.90;13.00;;;16.30;99.90;;;;;;5128930;27;20420;-37
2021/09/07 03:20:41;;;;;;;16.23;13.40;;;16.20;99.90;;;;;;5130203;27;20432;-37
2021/09/07 03:23:07;;;;;;;15.30;13.10;;;16.10;99.90;;;;;;5129622;27;20278;-37
2021/09/07 03:25:33;;;;;;;15.00;12.80;;;16.20;99.90;;;;;;5130067;27;20198;-37
2021/09/07 03:27:58;;;;;;;18.23;14.57;;;16.30;99.90;;;;;;5123527;27;20219;-37
2021/09/07 03:30:24;;;;;;;15.60;12.50;;;16.40;99.90;;;;;;5122840;27;20210;-38
2021/09/07 03:32:51;;;;;;;15.30;13.10;;;16.40;99.90;;;;;;5129658;27;20207;-38
2021/09/07 03:35:18;;;;;;;17.57;12.87;;;16.40;99.90;;;;;;5129832;27;20427;-40
2021/09/07 03:37:44;;;;;;;14.67;12.10;;;16.40;99.90;;;;;;5129757;27;20424;-37
2021/09/07 03:40:11;;;;;;;15.70;13.17;;;16.40;99.90;;;;;;5111224;27;20934;-38
2021/09/07 03:42:37;;;;;;;15.50;12.70;;;16.40;99.90;;;;;;5118027;27;20444;-37
2021/09/07 03:45:08;;;;;;;19.70;14.60;;;16.30;99.90;;;;;;5107871;27;20433;-40
2021/09/07 03:47:34;;;;;;;15.50;12.27;;;16.20;99.90;;;;;;5129186;27;20718;-39
2021/09/07 03:50:01;;;;;;;18.40;14.13;;;16.30;99.90;;;;;;5111253;27;20429;-37
2021/09/07 03:52:26;;;;;;;14.37;12.83;;;16.40;99.90;;;;;;5110647;27;20420;-38
2021/09/07 03:54:52;;;;;;;15.17;12.90;;;16.40;99.90;;;;;;5129566;27;20428;-38
2021/09/07 03:57:18;;;;;;;18.00;13.70;;;16.50;99.90;;;;;;5121719;27;20187;-38
2021/09/07 03:59:43;;;;;;;16.10;13.27;;;16.50;99.90;;;;;;5127274;27;20409;-38
2021/09/07 04:02:09;;;;;;;20.37;14.13;;;16.60;99.90;;;;;;5118224;27;20183;-38
2021/09/07 04:04:34;;;;;;;18.80;12.80;;;16.60;99.90;;;;;;5108981;28;20192;-39
2021/09/07 04:07:00;;;;;;;14.90;12.23;;;16.60;99.90;;;;;;5125085;27;20305;-37
2021/09/07 04:09:26;;;;;;;14.80;12.73;;;16.70;99.90;;;;;;5129270;27;20186;-37
2021/09/07 04:11:51;;;;;;;18.93;14.03;;;16.60;99.90;;;;;;5125637;27;20183;-38
2021/09/07 04:14:18;;;;;;;17.73;13.40;;;16.60;99.90;;;;;;5120202;27;20580;-38
2021/09/07 04:16:44;;;;;;;16.13;13.47;;;16.50;99.90;;;;;;5124292;27;20258;-38
2021/09/07 04:19:10;;;;;;;19.50;14.00;;;16.50;99.90;;;;;;5128710;27;20531;-38
2021/09/07 04:21:36;;;;;;;15.27;13.00;;;16.60;99.90;;;;;;5127091;27;20510;-40
2021/09/07 04:24:03;;;;;;;16.03;12.33;;;16.60;99.90;;;;;;5129267;27;20432;-38
2021/09/07 04:26:31;;;;;;;16.50;11.97;;;16.60;99.90;;;;;;5128859;27;20868;-38
2021/09/07 04:28:57;;;;;;;15.40;12.80;;;16.50;99.90;;;;;;5118423;27;20672;-38
2021/09/07 04:31:23;;;;;;;17.63;12.90;;;16.50;99.90;;;;;;5128660;27;20416;-38
2021/09/07 04:33:49;;;;;;;16.23;13.20;;;16.50;99.90;;;;;;5129152;27;20416;-38
2021/09/07 04:36:14;;;;;;;15.43;13.10;;;16.50;99.90;;;;;;5128114;27;20915;-38
2021/09/07 04:38:40;;;;;;;17.40;14.23;;;16.60;99.90;;;;;;5128885;27;20186;-38
2021/09/07 04:41:06;;;;;;;15.70;12.90;;;16.60;99.90;;;;;;5128812;27;20183;-38
2021/09/07 04:43:32;;;;;;;17.87;14.00;;;16.60;99.90;;;;;;5102441;27;20636;-38
2021/09/07 04:45:57;;;;;;;16.57;13.33;;;16.70;99.90;;;;;;5128210;27;20979;-38
2021/09/07 04:48:23;;;;;;;15.30;12.30;;;16.70;99.90;;;;;;5128660;27;20218;-37
2021/09/07 04:50:49;;;;;;;13.43;12.00;;;16.70;99.90;;;;;;5128515;27;20278;-38
2021/09/07 04:53:15;;;;;;;14.70;12.33;;;16.70;99.90;;;;;;5128035;27;20179;-38
2021/09/07 04:55:40;;;;;;;15.93;12.80;;;16.70;99.90;;;;;;5128481;27;20297;-40
2021/09/07 04:58:06;;;;;;;16.80;12.33;;;16.70;99.90;;;;;;5119113;27;20896;-38
2021/09/07 05:00:32;;;;;;;17.30;12.80;;;16.70;99.90;;;;;;5126647;27;20186;-38
2021/09/07 05:02:58;;;;;;;14.07;12.47;;;16.70;99.90;;;;;;5127826;27;20191;-38
2021/09/07 05:05:24;;;;;;;16.20;13.47;;;16.60;99.90;;;;;;5128349;27;20194;-38
2021/09/07 05:07:49;;;;;;;16.40;13.40;;;16.60;99.90;;;;;;5127776;27;20239;-39
2021/09/07 05:10:16;;;;;;;16.83;13.97;;;16.60;99.90;;;;;;5128491;27;20417;-37
2021/09/07 05:12:41;;;;;;;16.10;13.33;;;16.60;99.90;;;;;;5123006;27;20278;-38
2021/09/07 05:15:07;;;;;;;15.10;12.10;;;16.60;99.90;;;;;;5123166;27;20865;-38
2021/09/07 05:17:33;;;;;;;17.27;12.40;;;16.60;99.90;;;;;;5101877;27;20222;-38
2021/09/07 05:19:59;;;;;;;17.43;12.47;;;16.60;99.90;;;;;;5127834;27;20421;-37
2021/09/07 05:22:24;;;;;;;18.27;12.70;;;16.60;99.90;;;;;;5127258;27;20190;-37
2021/09/07 05:24:50;;;;;;;16.50;12.67;;;16.60;99.90;;;;;;5127410;27;20640;-37
2021/09/07 05:27:16;;;;;;;16.37;12.97;;;16.70;99.90;;;;;;5125231;27;20228;-38
2021/09/07 05:29:41;;;;;;;15.00;12.53;;;16.70;99.90;;;;;;5118749;27;20187;-39
2021/09/07 05:32:07;;;;;;;16.93;13.60;;;16.70;99.90;;;;;;5126934;27;20282;-38
2021/09/07 05:34:33;;;;;;;17.43;12.20;;;16.70;99.90;;;;;;5127205;27;20641;-37
2021/09/07 05:36:59;;;;;;;17.63;13.20;;;16.70;99.90;;;;;;5127063;27;20796;-38
2021/09/07 05:39:24;;;;;;;13.77;12.20;;;16.60;99.90;;;;;;5127750;27;20187;-37
2021/09/07 05:41:54;;;;;;;15.43;12.93;;;16.60;99.90;;;;;;5127424;27;20455;-38
2021/09/07 05:44:21;;;;;;;14.47;12.03;;;16.70;99.90;;;;;;5119152;27;20606;-38
2021/09/07 05:46:47;;;;;;;19.17;13.10;;;16.70;99.90;;;;;;5126848;27;20481;-37
2021/09/07 05:49:13;;;;;;;16.10;13.07;;;16.80;99.90;;;;;;5127268;27;20912;-38
2021/09/07 05:51:39;;;;;;;17.70;12.43;;;16.70;99.90;;;;;;5126998;27;20546;-38
2021/09/07 05:54:05;;;;;;;14.83;12.97;;;16.70;99.90;;;;;;5127374;27;20212;-37
2021/09/07 05:56:31;;;;;;;17.30;13.00;;;16.70;99.90;;;;;;5126987;27;20429;-37
2021/09/07 05:58:57;;;;;;;16.77;13.10;;;16.70;99.90;;;;;;5112676;27;20191;-38
2021/09/07 06:01:23;;;;;;;15.80;14.10;;;16.70;99.90;;;;;;5123839;27;20182;-38
2021/09/07 06:03:49;;;;;;;19.73;12.83;;;16.70;99.90;;;;;;5126931;27;20425;-39
2021/09/07 06:06:15;;;;;;;18.90;13.47;;;16.70;99.90;;;;;;5126596;27;20432;-38
2021/09/07 06:08:41;;;;;;;15.60;13.17;;;16.80;99.90;;;;;;5127093;27;20214;-38
2021/09/07 06:11:07;;;;;;;19.67;14.53;;;16.80;99.90;;;;;;5126786;27;20447;-37
2021/09/07 06:13:33;;;;;;;15.50;13.43;;;16.80;99.90;;;;;;5117685;27;20745;-38
2021/09/07 06:15:59;;;;;;;16.33;12.47;;;16.80;99.90;;;;;;5126227;27;20427;-38
2021/09/07 06:18:26;;;;;;;17.93;12.70;;;16.90;99.90;;;;;;5107626;27;20417;-37
2021/09/07 06:20:51;;;;;;;16.40;12.77;;;16.80;99.90;;;;;;5126724;27;20790;-37
2021/09/07 06:23:17;;;;;;;17.87;13.63;;;16.80;99.90;;;;;;5126681;27;20416;-38
2021/09/07 06:25:43;;;;;;;16.93;12.63;;;16.80;99.90;;;;;;5126628;27;20187;-37
2021/09/07 06:28:11;;;;;;;15.67;13.03;;;16.80;99.90;;;;;;5101896;28;20207;-37
2021/09/07 06:30:38;;;;;;;15.77;13.13;;;16.90;99.90;;;;;;5090276;28;20426;-37
2021/09/07 06:33:04;;;;;;;13.87;12.07;;;16.90;99.90;;;;;;5087065;28;20429;-37
2021/09/07 06:35:30;;;;;;;16.80;13.63;;;16.90;99.90;;;;;;5106474;27;20425;-37
2021/09/07 06:37:55;;;;;;;14.77;12.67;;;16.90;99.90;;;;;;5126394;27;20194;-37
2021/09/07 06:40:21;;;;;;;16.03;13.57;;;16.90;99.90;;;;;;5126624;28;20677;-37
2021/09/07 06:42:48;;;;;;;17.23;13.37;;;16.90;99.90;;;;;;5125534;27;20195;-37
2021/09/07 06:45:14;;;;;;;14.73;13.23;;;17.00;99.90;;;;;;5113364;28;20452;-37
2021/09/07 06:47:40;;;;;;;16.53;12.73;;;17.00;99.90;;;;;;5125920;28;21022;-37
2021/09/07 06:50:06;;;;;;;15.40;12.93;;;17.10;99.90;;;;;;5126808;28;20205;-37
2021/09/07 06:52:32;;;;;;;13.93;12.20;;;17.10;99.90;;;;;;5126110;28;20318;-37
2021/09/07 06:54:58;;;;;;;18.53;13.27;;;17.20;99.90;;;;;;5126441;28;20428;-37
2021/09/07 06:57:26;;;;;;;16.13;13.23;;;17.20;99.90;;;;;;5126540;28;20193;-37
2021/09/07 06:59:53;;;;;;;14.60;11.60;;;17.30;99.90;;;;;;5115725;28;20572;-37
2021/09/07 07:02:19;;;;;;;17.53;12.97;;;17.30;99.90;;;;;;5126099;28;20779;-37
2021/09/07 07:04:45;;;;;;;17.57;12.97;;;17.30;99.90;;;;;;5126438;28;20420;-37
2021/09/07 07:07:11;;;;;;;15.23;12.90;;;17.40;99.90;;;;;;5126186;28;20528;-37
2021/09/07 07:09:37;;;;;;;15.83;12.63;;;17.40;99.90;;;;;;5126353;28;20198;-37
2021/09/07 07:12:03;;;;;;;18.03;12.40;;;17.50;99.90;;;;;;5125778;28;20417;-37
2021/09/07 07:14:29;;;;;;;15.77;12.60;;;17.50;99.90;;;;;;5118044;28;20448;-37
2021/09/07 07:16:55;;;;;;;14.87;12.10;;;17.50;99.90;;;;;;5124707;28;20913;-37
2021/09/07 07:19:20;;;;;;;15.27;12.87;;;17.60;99.90;;;;;;5126162;28;20202;-37
2021/09/07 07:21:48;;;;;;;15.07;13.10;;;17.60;99.90;;;;;;5125975;28;20190;-37
2021/09/07 07:24:16;;;;;;;16.80;12.77;;;17.60;99.90;;;;;;5126152;28;20553;-37
2021/09/07 07:26:45;;;;;;;18.90;13.20;;;17.70;99.90;;;;;;5125611;28;20475;-37
2021/09/07 07:29:12;;;;;;;19.73;13.37;;;17.70;99.90;;;;;;5100479;28;20800;-37
2021/09/07 07:31:41;;;;;;;14.43;12.77;;;17.80;99.90;;;;;;5106786;28;20425;-37
2021/09/07 07:34:07;;;;;;;17.33;14.10;;;17.80;99.90;;;;;;5119459;28;20507;-37
2021/09/07 07:36:34;;;;;;;18.33;13.67;;;17.90;99.90;;;;;;5126048;28;20926;-37
2021/09/07 07:39:03;;;;;;;19.90;14.00;;;18.00;99.90;;;;;;5126241;28;20254;-37
2021/09/07 07:41:29;;;;;;;16.50;13.57;;;18.00;99.90;;;;;;5125402;28;20421;-37
2021/09/07 07:43:55;;;;;;;18.73;13.57;;;18.10;99.90;;;;;;5120308;28;20474;-37
2021/09/07 07:46:21;;;;;;;17.10;13.57;;;18.00;99.90;;;;;;5119420;28;20676;-37
2021/09/07 07:48:47;;;;;;;14.77;12.77;;;18.10;99.90;;;;;;5125932;28;20809;-37
2021/09/07 07:51:13;;;;;;;16.00;13.67;;;18.10;99.90;;;;;;5126151;28;20424;-37
2021/09/07 07:53:40;;;;;;;21.10;13.97;;;18.20;99.90;;;;;;5126163;28;20515;-37
2021/09/07 07:56:06;;;;;;;16.20;12.77;;;18.20;99.90;;;;;;5127813;27;20881;-37
2021/09/07 07:58:32;;;;;;;16.13;12.77;;;18.10;99.90;;;;;;5127662;27;20435;-37
2021/09/07 08:00:58;;;;;;;15.37;12.30;;;18.20;99.90;;;;;;5115847;27;20425;-38
2021/09/07 08:03:24;;;;;;;17.30;13.70;;;18.20;99.90;;;;;;5127860;27;20416;-37
2021/09/07 08:05:50;;;;;;;17.53;15.10;;;18.20;99.90;;;;;;5129325;27;20421;-37
2021/09/07 08:08:16;;;;;;;16.10;13.20;;;18.20;99.90;;;;;;5129031;27;20219;-37
2021/09/07 08:10:42;;;;;;;16.70;13.37;;;18.30;99.90;;;;;;5129299;27;20474;-37
2021/09/07 08:13:08;;;;;;;18.80;15.40;;;18.30;99.90;;;;;;5128865;27;20729;-38
2021/09/07 08:15:34;;;;;;;17.93;14.13;;;18.40;99.90;;;;;;5116950;27;20192;-38
2021/09/07 08:18:01;;;;;;;22.83;14.00;;;18.40;99.90;;;;;;5127857;27;20944;-37
2021/09/07 08:20:32;;;;;;;19.80;15.33;;;18.50;99.90;;;;;;5129576;27;20427;-37
2021/09/07 08:22:58;;;;;;;20.30;14.83;;;18.60;99.90;;;;;;5128709;27;21034;-37
2021/09/07 08:25:24;;;;;;;17.00;14.17;;;18.60;99.90;;;;;;5128877;27;20451;-37
2021/09/07 08:27:50;;;;;;;19.77;14.40;;;18.70;99.90;;;;;;5128802;27;20591;-37
2021/09/07 08:30:16;;;;;;;19.67;14.00;;;18.70;99.90;;;;;;5103176;27;21019;-37
2021/09/07 08:32:43;;;;;;;19.83;14.70;;;18.80;99.90;;;;;;5128094;27;20186;-37
2021/09/07 08:35:10;;;;;;;16.23;13.23;;;18.80;99.90;;;;;;5127397;27;20237;-37
2021/09/07 08:37:36;;;;;;;17.90;15.03;;;18.90;99.90;;;;;;5126929;27;20468;-37
2021/09/07 08:40:04;;;;;;;19.30;13.77;;;19.00;99.90;;;;;;5109699;27;20420;-37
2021/09/07 08:42:33;;;;;;;19.00;13.20;;;19.00;99.90;;;;;;5109434;27;20424;-37
2021/09/07 08:44:59;;;;;;;16.67;13.80;;;19.00;99.90;;;;;;5119316;27;20441;-37
2021/09/07 08:47:25;;;;;;;18.27;13.20;;;19.10;99.90;;;;;;5125226;27;20858;-38
2021/09/07 08:49:51;;;;;;;19.93;13.43;;;19.10;99.90;;;;;;5128131;27;20433;-37
2021/09/07 08:52:22;;;;;;;18.00;13.30;;;19.20;99.90;;;;;;5127379;27;20191;-37
2021/09/07 08:54:48;;;;;;;23.30;14.90;;;19.20;99.90;;;;;;5128207;27;20549;-38
2021/09/07 08:57:14;;;;;;;19.20;14.40;;;19.30;99.90;;;;;;5127783;27;20855;-37
2021/09/07 08:59:39;;;;;;;19.73;14.13;;;19.40;99.90;;;;;;5121425;27;20436;-37
2021/09/07 09:02:16;;;;;;;16.13;12.90;;;19.40;99.90;;;;;;5122125;27;20653;-37
2021/09/07 09:04:47;;;;;;;18.57;12.93;;;19.50;99.90;;;;;;5123241;27;20630;-37
2021/09/07 09:07:20;;;;;;;15.70;13.27;;;19.50;99.90;;;;;;5126565;27;20473;-37
2021/09/07 09:09:45;;;;;;;14.90;12.43;;;19.50;99.90;;;;;;5128027;27;20467;-37
2021/09/07 09:12:11;;;;;;;15.17;12.83;;;19.60;99.90;;;;;;5127386;27;20897;-37
2021/09/07 09:14:39;;;;;;;18.37;13.17;;;19.60;99.90;;;;;;5109921;27;20374;-37
2021/09/07 09:17:17;;;;;;;15.77;13.67;;;19.70;99.90;;;;;;5120542;27;20450;-37
2021/09/07 09:20:01;;;;;;;15.00;12.93;;;19.80;99.90;;;;;;5127133;27;20831;-37
2021/09/07 09:22:39;;;;;;;15.43;12.73;;;19.80;99.90;;;;;;5127131;27;20852;-37
2021/09/07 09:25:33;;;;;;;13.63;12.20;;;19.90;99.90;;;;;;5128531;27;20880;-37
2021/09/07 09:27:58;;;;;;;15.23;13.63;;;19.90;99.90;;;;;;5127419;27;20460;-37
2021/09/07 09:30:29;;;;;;;16.83;14.47;;;20.00;99.90;;;;;;5119076;27;20482;-37
2021/09/07 09:32:55;;;;;;;17.30;13.90;;;20.10;99.90;;;;;;5127360;27;20196;-36
2021/09/07 09:35:21;;;;;;;18.87;13.67;;;20.10;99.90;;;;;;5127762;27;21043;-37
2021/09/07 09:37:52;;;;;;;17.03;13.60;;;20.10;99.90;;;;;;5127441;27;20417;-37
2021/09/07 09:40:18;;;;;;;20.20;13.60;;;20.20;99.90;;;;;;5127878;27;20222;-36
2021/09/07 09:42:44;;;;;;;14.80;12.23;;;20.30;99.90;;;;;;5127382;27;20812;-37
2021/09/07 09:45:10;;;;;;;12.60;10.50;;;20.40;99.90;;;;;;5120919;27;20521;-37
2021/09/07 09:47:42;;;;;;;13.77;9.70;;;20.50;99.90;;;;;;5125969;27;20263;-37
2021/09/07 09:50:10;;;;;;;10.70;9.57;;;20.50;99.90;;;;;;5127697;27;20654;-37
2021/09/07 09:52:37;;;;;;;12.90;9.47;;;20.50;99.90;;;;;;5127736;27;21007;-37
2021/09/07 09:55:06;;;;;;;11.90;10.13;;;20.60;99.90;;;;;;5127241;27;20821;-37
2021/09/07 09:57:36;;;;;;;11.23;9.10;;;20.60;99.90;;;;;;5126905;27;20408;-37
2021/09/07 10:00:04;;;;;;;10.53;8.80;;;20.70;99.90;;;;;;5126470;27;20429;-37
2021/09/07 10:02:31;;;;;;;10.00;8.97;;;20.70;99.90;;;;;;5122782;27;20462;-36
2021/09/07 10:04:58;;;;;;;13.13;9.43;;;20.80;99.90;;;;;;5127063;27;20554;-37
2021/09/07 10:07:25;;;;;;;12.33;11.03;;;20.90;99.90;;;;;;5126353;27;20468;-37
2021/09/07 10:09:51;;;;;;;12.70;10.63;;;21.00;99.90;;;;;;5127119;27;20477;-37
2021/09/07 10:12:28;;;;;;;10.77;9.40;;;21.00;99.90;;;;;;5126526;27;20423;-38
2021/09/07 10:15:11;;;;;;;13.20;9.70;;;21.10;99.90;;;;;;5111187;27;20911;-37
2021/09/07 10:26:01;;;;;;;10.50;8.90;;;21.10;99.90;;;;;;5051980;28;20506;-37
2021/09/07 10:28:36;;;;;;;11.10;10.00;;;21.30;99.90;;;;;;5120800;27;20494;-37
2021/09/07 10:31:03;;;;;;;10.60;9.00;;;21.30;99.90;;;;;;5116703;27;20433;-37
2021/09/07 10:33:34;;;;;;;10.13;8.40;;;21.30;99.90;;;;;;5123777;27;20420;-36
2021/09/07 10:36:21;;;;;;;11.07;9.10;;;21.30;99.90;;;;;;5126508;27;20492;-37
2021/09/07 10:38:50;;;;;;;11.40;9.30;;;21.40;99.90;;;;;;5126542;27;20432;-37
2021/09/07 10:41:34;;;;;;;11.50;10.23;;;21.40;99.90;;;;;;5126861;27;20451;-37
2021/09/07 10:44:16;;;;;;;11.70;9.80;;;21.50;99.90;;;;;;5126646;28;20410;-37
2021/09/07 10:46:49;;;;;;;12.00;9.20;;;21.50;99.90;;;;;;5116266;28;20460;-36
2021/09/07 10:49:32;;;;;;;12.43;10.53;;;21.60;99.90;;;;;;5126367;28;20922;-37
2021/09/07 10:52:11;;;;;;;12.53;9.60;;;21.70;99.90;;;;;;5113119;28;20549;-37
2021/09/07 10:54:43;;;;;;;13.60;10.67;;;21.80;99.90;;;;;;5126444;28;20545;-37
2021/09/07 10:57:09;;;;;;;12.03;9.93;;;21.90;99.90;;;;;;5126121;28;20416;-37
2021/09/07 10:59:54;;;;;;;14.80;10.60;;;21.90;99.90;;;;;;5126270;28;20416;-37
2021/09/07 11:02:48;;;;;;;13.37;9.60;;;21.90;99.90;;;;;;5117638;28;20221;-38
2021/09/07 11:05:23;;;;;;;12.10;10.33;;;22.00;99.90;;;;;;5095462;28;20464;-37
2021/09/07 11:07:50;;;;;;;14.17;10.00;;;22.00;99.90;;;;;;5125628;28;20943;-37
2021/09/07 11:10:18;;;;;;;12.53;10.60;;;22.00;99.90;;;;;;5126553;28;20440;-38
2021/09/07 11:13:01;;;;;;;12.13;9.40;;;22.00;99.90;;;;;;5125909;28;20700;-37
2021/09/07 11:15:30;;;;;;;10.93;9.47;;;22.10;99.90;;;;;;5113805;28;20543;-37
2021/09/07 11:17:57;;;;;;;11.77;9.93;;;22.10;99.90;;;;;;5118505;28;20523;-37
2021/09/07 11:20:30;;;;;;;13.90;10.17;;;22.20;99.90;;;;;;5126092;28;20419;-38
2021/09/07 11:22:57;;;;;;;15.40;10.20;;;22.20;99.90;;;;;;5112988;28;20460;-37
2021/09/07 11:25:24;;;;;;;10.93;9.50;;;22.30;99.90;;;;;;5126468;28;20851;-37
2021/09/07 11:27:51;;;;;;;12.13;9.70;;;22.30;99.90;;;;;;5125685;28;20555;-37
2021/09/07 11:30:30;;;;;;;12.00;9.53;;;22.30;99.90;;;;;;5125874;27;20405;-37
2021/09/07 11:33:03;;;;;;;10.60;9.37;;;22.40;99.90;;;;;;5122789;27;20405;-37
2021/09/07 11:35:32;;;;;;;10.53;9.40;;;22.50;99.90;;;;;;5130194;27;20907;-37
2021/09/07 11:38:12;;;;;;;11.30;9.50;;;22.50;99.90;;;;;;5130269;27;20515;-37
2021/09/07 11:40:53;;;;;;;12.87;10.33;;;22.40;99.90;;;;;;5130122;27;20432;-37
2021/09/07 11:43:33;;;;;;;11.60;10.30;;;22.40;99.90;;;;;;5129276;27;20408;-37
2021/09/07 11:46:05;;;;;;;11.93;9.10;;;22.50;99.90;;;;;;5122935;27;20548;-37
2021/09/07 11:48:30;;;;;;;13.43;9.80;;;22.50;99.90;;;;;;5127888;27;20467;-37
2021/09/07 11:50:56;;;;;;;12.07;9.70;;;22.70;99.90;;;;;;5130537;27;20812;-36
2021/09/07 11:53:22;;;;;;;11.37;8.97;;;22.70;99.00;;;;;;5129383;27;20544;-37
2021/09/07 11:55:50;;;;;;;11.30;10.00;;;22.90;99.40;;;;;;5111120;27;20667;-36
2021/09/07 11:58:33;;;;;;;11.00;9.90;;;23.00;99.90;;;;;;5129613;27;20195;-37
2021/09/07 12:00:59;;;;;;;13.20;9.67;;;23.00;99.20;;;;;;5123760;27;20919;-37
2021/09/07 12:03:34;;;;;;;11.20;9.87;;;23.00;99.90;;;;;;5122014;27;20464;-37
2021/09/07 12:06:01;;;;;;;13.10;10.80;;;23.10;99.50;;;;;;5110966;27;20183;-36
2021/09/07 12:08:40;;;;;;;11.50;9.80;;;23.20;99.90;;;;;;5129074;27;20507;-37
2021/09/07 12:11:07;;;;;;;12.63;10.70;;;23.30;99.90;;;;;;5129631;27;20702;-36
2021/09/07 12:13:34;;;;;;;12.03;9.40;;;23.40;99.90;;;;;;5128978;27;20417;-36
2021/09/07 12:16:02;;;;;;;12.80;11.03;;;23.40;98.40;;;;;;5111362;27;20464;-38
2021/09/07 12:18:39;;;;;;;12.03;10.50;;;23.50;96.20;;;;;;5118971;27;20420;-37
2021/09/07 12:21:16;;;;;;;10.83;9.63;;;23.50;97.20;;;;;;5129232;27;20991;-37
2021/09/07 12:23:45;;;;;;;14.50;10.07;;;23.50;98.80;;;;;;5128938;27;20424;-36
2021/09/07 12:26:11;;;;;;;10.83;8.80;;;23.60;98.70;;;;;;5129161;27;20425;-37
2021/09/07 12:28:39;;;;;;;11.07;9.50;;;23.70;98.80;;;;;;5128008;27;20862;-37
2021/09/07 12:31:20;;;;;;;11.37;10.27;;;23.70;98.00;;;;;;5122943;27;20575;-37
2021/09/07 12:33:51;;;;;;;10.70;9.60;;;23.70;97.70;;;;;;5126454;27;20423;-37
2021/09/07 12:36:18;;;;;;;10.17;9.03;;;23.80;98.20;;;;;;5117188;27;20887;-37
2021/09/07 12:38:44;;;;;;;12.40;9.67;;;23.80;98.70;;;;;;5108857;28;20981;-36